createdAt,value
2023-09-28T00:01:49.645Z,101171.50
2023-09-28T00:04:51.420Z,101163.75
2023-09-28T00:07:54.168Z,101168.06
2023-09-28T00:10:58.191Z,101170.63
2023-09-28T00:13:59.913Z,101176.13
2023-09-28T00:17:04.720Z,101166.00
2023-09-28T00:20:10.943Z,101169.22
2023-09-28T00:23:14.001Z,101173.44
2023-09-28T00:26:18.009Z,101163.44
2023-09-28T00:29:20.710Z,101158.81
2023-09-28T00:32:22.825Z,101150.97
2023-09-28T00:35:26.628Z,101158.34
2023-09-28T00:38:28.413Z,101161.03
2023-09-28T00:41:32.401Z,101167.72
2023-09-28T00:44:35.034Z,101169.63
2023-09-28T00:47:39.718Z,101165.72
2023-09-28T00:50:41.593Z,101161.75
2023-09-28T00:53:44.435Z,101160.72
2023-09-28T00:56:49.743Z,101157.91
2023-09-28T00:59:51.670Z,101151.69
2023-09-28T01:02:56.832Z,101154.13
2023-09-28T01:05:59.541Z,101154.63
2023-09-28T01:09:01.188Z,101154.66
2023-09-28T01:12:08.598Z,101158.09
2023-09-28T01:15:13.001Z,101159.06
2023-09-28T01:18:17.465Z,101152.84
2023-09-28T01:21:20.190Z,101142.22
2023-09-28T01:24:23.257Z,101143.22
2023-09-28T01:27:25.901Z,101135.75
2023-09-28T01:30:29.081Z,101130.81
2023-09-28T01:33:31.277Z,101132.31
2023-09-28T01:36:34.022Z,101123.50
2023-09-28T01:39:37.055Z,101107.94
2023-09-28T01:42:39.684Z,101097.28
2023-09-28T01:45:42.364Z,101093.88
2023-09-28T01:48:44.059Z,101098.13
2023-09-28T01:51:46.722Z,101103.25
2023-09-28T01:54:50.744Z,101091.06
2023-09-28T01:57:52.448Z,101087.41
2023-09-28T02:00:55.108Z,101093.00
2023-09-28T02:03:57.773Z,101085.28
2023-09-28T02:06:59.784Z,101091.16
2023-09-28T02:10:03.786Z,101088.25
2023-09-28T02:13:06.822Z,101107.72
2023-09-28T02:16:12.553Z,101105.03
2023-09-28T02:19:15.377Z,101093.84
2023-09-28T02:22:18.025Z,101080.66
2023-09-28T02:25:23.414Z,101088.19
2023-09-28T02:28:25.100Z,101083.97
2023-09-28T02:31:28.945Z,101107.38
2023-09-28T02:34:35.018Z,101117.72
2023-09-28T02:37:37.955Z,101117.25
2023-09-28T02:40:41.990Z,101113.63
2023-09-28T02:43:44.654Z,101111.44
2023-09-28T02:46:46.417Z,101106.75
2023-09-28T02:49:49.608Z,101107.00
2023-09-28T02:52:53.844Z,101111.88
2023-09-28T02:55:58.436Z,101105.47
2023-09-28T02:59:00.936Z,101111.03
2023-09-28T03:02:03.998Z,101115.25
2023-09-28T03:05:08.178Z,101110.16
2023-09-28T03:08:11.365Z,101105.88
2023-09-28T03:11:16.687Z,101100.72
2023-09-28T03:14:20.349Z,101094.44
2023-09-28T03:17:22.075Z,101092.31
2023-09-28T03:20:26.303Z,101096.59
2023-09-28T03:23:28.020Z,101105.00
2023-09-28T03:26:32.470Z,101093.47
2023-09-28T03:29:35.125Z,101103.81
2023-09-28T03:32:37.427Z,101099.69
2023-09-28T03:35:40.149Z,101106.47
2023-09-28T03:38:42.777Z,101108.97
2023-09-28T03:41:46.761Z,101102.38
2023-09-28T03:44:49.400Z,101102.78
2023-09-28T03:47:53.741Z,101097.81
2023-09-28T03:50:56.441Z,101079.78
2023-09-28T03:53:59.353Z,101077.13
2023-09-28T03:57:03.593Z,101084.22
2023-09-28T04:00:09.985Z,101076.91
2023-09-28T04:03:12.937Z,101080.56
2023-09-28T04:06:15.564Z,101084.97
2023-09-28T04:09:18.204Z,101089.38
2023-09-28T04:12:22.185Z,101087.97
2023-09-28T04:15:24.910Z,101088.34
2023-09-28T04:18:28.129Z,101107.59
2023-09-28T04:21:30.862Z,101094.19
2023-09-28T04:24:33.472Z,101081.41
2023-09-28T04:27:37.645Z,101074.09
2023-09-28T04:30:40.334Z,101081.03
2023-09-28T04:33:42.953Z,101076.78
2023-09-28T04:36:46.113Z,101075.81
2023-09-28T04:39:48.767Z,101079.25
2023-09-28T04:42:52.742Z,101078.56
2023-09-28T04:45:55.396Z,101089.66
2023-09-28T04:48:58.057Z,101094.22
2023-09-28T04:52:00.833Z,101096.94
2023-09-28T04:55:05.140Z,101109.97
2023-09-28T04:58:11.436Z,101102.47
2023-09-28T05:01:14.214Z,101108.81
2023-09-28T05:04:17.258Z,101112.03
2023-09-28T05:07:19.924Z,101111.00
2023-09-28T05:10:22.546Z,101112.50
2023-09-28T05:13:30.483Z,101112.13
2023-09-28T05:16:33.230Z,101108.31
2023-09-28T05:19:35.928Z,101101.66
2023-09-28T05:22:38.759Z,101111.13
2023-09-28T05:25:41.424Z,101104.03
2023-09-28T05:28:45.482Z,101114.78
2023-09-28T05:31:48.624Z,101131.13
2023-09-28T05:34:51.475Z,101131.38
2023-09-28T05:37:54.178Z,101130.13
2023-09-28T05:40:57.661Z,101130.31
2023-09-28T05:44:01.903Z,101147.75
2023-09-28T05:47:04.599Z,101160.59
2023-09-28T05:50:09.401Z,101162.25
2023-09-28T05:53:12.133Z,101146.31
2023-09-28T05:56:14.857Z,101146.13
2023-09-28T05:59:18.900Z,101144.19
2023-09-28T06:02:24.069Z,101152.81
2023-09-28T06:05:27.321Z,101155.66
2023-09-28T06:08:30.020Z,101165.75
2023-09-28T06:11:32.733Z,101170.44
2023-09-28T06:14:37.143Z,101171.59
2023-09-28T06:17:39.927Z,101172.91
2023-09-28T06:20:42.977Z,101181.94
2023-09-28T06:23:45.706Z,101177.19
2023-09-28T06:26:50.059Z,101187.41
2023-09-28T06:29:55.178Z,101182.38
2023-09-28T06:32:58.151Z,101185.53
2023-09-28T06:36:00.778Z,101186.31
2023-09-28T06:39:04.711Z,101185.78
2023-09-28T06:42:20.782Z,101188.66
2023-09-28T06:45:30.437Z,101193.38
2023-09-28T06:48:34.499Z,101192.22
2023-09-28T06:51:38.264Z,101187.91
2023-09-28T06:54:40.926Z,101189.63
2023-09-28T06:57:43.589Z,101196.72
2023-09-28T07:00:47.867Z,101200.47
2023-09-28T07:03:54.472Z,101214.59
2023-09-28T07:06:57.346Z,101210.69
2023-09-28T07:10:00.033Z,101209.31
2023-09-28T07:13:04.076Z,101220.38
2023-09-28T07:16:09.069Z,101217.28
2023-09-28T07:19:11.810Z,101225.25
2023-09-28T07:22:16.607Z,101236.72
2023-09-28T07:25:20.310Z,101236.72
2023-09-28T07:28:23.145Z,101247.69
2023-09-28T07:31:28.427Z,101244.91
2023-09-28T07:34:31.328Z,101241.47
2023-09-28T07:37:34.380Z,101230.06
2023-09-28T07:43:47.369Z,101241.88
2023-09-28T07:46:51.561Z,101243.28
2023-09-28T07:49:54.449Z,101245.78
2023-09-28T07:52:57.186Z,101248.25
2023-09-28T07:55:59.915Z,101253.63
2023-09-28T07:59:02.608Z,101251.34
2023-09-28T08:02:06.685Z,101253.84
2023-09-28T08:05:09.874Z,101257.63
2023-09-28T08:08:16.862Z,101257.63
2023-09-28T08:11:20.971Z,101274.41
2023-09-28T08:14:23.635Z,101278.38
2023-09-28T08:17:27.694Z,101276.97
2023-09-28T08:20:31.918Z,101274.81
2023-09-28T08:23:34.788Z,101278.19
2023-09-28T08:26:37.516Z,101291.19
2023-09-28T08:29:40.143Z,101292.25
2023-09-28T08:32:44.317Z,101287.28
2023-09-28T08:35:49.087Z,101289.13
2023-09-28T08:38:52.147Z,101282.41
2023-09-28T08:41:56.764Z,101276.91
2023-09-28T08:45:03.422Z,101288.06
2023-09-28T08:48:12.708Z,101284.69
2023-09-28T08:51:16.755Z,101293.69
2023-09-28T08:54:20.632Z,101297.41
2023-09-28T08:57:23.418Z,101293.63
2023-09-28T09:00:27.292Z,101295.13
2023-09-28T09:03:34.101Z,101304.72
2023-09-28T09:06:38.103Z,101306.22
2023-09-28T09:09:43.228Z,101319.97
2023-09-28T09:12:45.900Z,101330.25
2023-09-28T09:15:50.339Z,101334.66
2023-09-28T09:18:55.354Z,101342.81
2023-09-28T09:21:58.625Z,101333.47
2023-09-28T09:25:01.541Z,101329.56
2023-09-28T09:28:05.627Z,101324.16
2023-09-28T09:31:08.399Z,101301.28
2023-09-28T09:34:18.847Z,101307.66
2023-09-28T09:37:21.586Z,101305.38
2023-09-28T09:40:24.372Z,101305.03
2023-09-28T09:43:27.034Z,101306.56
2023-09-28T09:46:29.724Z,101307.53
2023-09-28T09:49:35.155Z,101306.56
2023-09-28T09:52:38.517Z,101310.44
2023-09-28T09:55:47.610Z,101303.03
2023-09-28T09:58:57.997Z,101305.84
2023-09-28T10:02:03.139Z,101303.28
2023-09-28T10:05:10.009Z,101308.41
2023-09-28T10:08:13.439Z,101311.22
2023-09-28T10:11:17.554Z,101312.69
2023-09-28T10:14:22.644Z,101308.13
2023-09-28T10:17:27.285Z,101308.66
2023-09-28T10:20:31.966Z,101292.09
2023-09-28T10:23:34.751Z,101303.97
2023-09-28T10:26:39.809Z,101313.72
2023-09-28T10:29:43.105Z,101312.25
2023-09-28T10:32:46.776Z,101299.69
2023-09-28T10:35:50.848Z,101302.44
2023-09-28T10:39:08.410Z,101314.72
2023-09-28T10:42:14.357Z,101324.06
2023-09-28T10:45:28.292Z,101319.75
2023-09-28T10:48:33.979Z,101324.63
2023-09-28T10:51:38.160Z,101329.94
2023-09-28T10:54:41.010Z,101319.47
2023-09-28T10:57:44.206Z,101324.84
2023-09-28T11:00:46.848Z,101336.81
2023-09-28T11:03:51.509Z,101333.00
2023-09-28T11:06:56.962Z,101333.78
2023-09-28T11:10:00.044Z,101332.09
2023-09-28T11:13:03.087Z,101322.34
2023-09-28T11:16:05.956Z,101330.84
2023-09-28T11:19:10.808Z,101327.03
2023-09-28T11:22:16.985Z,101316.06
2023-09-28T11:25:34.861Z,101305.81
2023-09-28T11:28:42.699Z,101319.53
2023-09-28T11:31:51.631Z,101314.63
2023-09-28T11:34:55.726Z,101309.63
2023-09-28T11:38:04.135Z,101307.38
2023-09-28T11:41:07.026Z,101309.81
2023-09-28T11:44:09.737Z,101302.03
2023-09-28T11:47:12.436Z,101311.75
2023-09-28T11:50:15.384Z,101319.13
2023-09-28T11:53:19.579Z,101327.84
2023-09-28T11:56:22.777Z,101327.84
2023-09-28T11:59:25.551Z,101324.50
2023-09-28T12:02:29.741Z,101335.22
2023-09-28T12:05:34.618Z,101333.53
2023-09-28T12:08:39.080Z,101330.75
2023-09-28T12:11:42.979Z,101331.91
2023-09-28T12:14:45.898Z,101334.94
2023-09-28T12:17:48.636Z,101338.69
2023-09-28T12:20:51.361Z,101335.88
2023-09-28T12:23:57.144Z,101324.25
2023-09-28T12:27:02.140Z,101321.97
2023-09-28T12:30:06.083Z,101322.63
2023-09-28T12:33:09.758Z,101327.69
2023-09-28T12:36:12.513Z,101333.00
2023-09-28T12:39:22.683Z,101331.00
2023-09-28T12:42:26.009Z,101324.97
2023-09-28T12:45:28.961Z,101328.38
2023-09-28T12:48:31.637Z,101321.22
2023-09-28T12:51:34.425Z,101330.78
2023-09-28T12:54:38.706Z,101334.16
2023-09-28T12:57:41.453Z,101335.84
2023-09-28T13:00:45.949Z,101330.47
2023-09-28T13:03:50.914Z,101328.25
2023-09-28T13:06:54.054Z,101323.66
2023-09-28T13:09:58.030Z,101328.34
2023-09-28T13:13:01.579Z,101334.00
2023-09-28T13:16:06.922Z,101323.63
2023-09-28T13:19:12.904Z,101321.75
2023-09-28T13:22:15.651Z,101326.72
2023-09-28T13:25:19.688Z,101330.25
2023-09-28T13:28:22.749Z,101349.78
2023-09-28T13:31:26.172Z,101344.41
2023-09-28T13:34:28.976Z,101337.06
2023-09-28T13:37:31.883Z,101338.03
2023-09-28T13:40:36.445Z,101344.00
2023-09-28T13:43:39.788Z,101340.25
2023-09-28T13:46:42.504Z,101338.16
2023-09-28T13:49:45.241Z,101331.47
2023-09-28T13:52:48.078Z,101329.97
2023-09-28T13:55:53.492Z,101320.91
2023-09-28T13:58:56.144Z,101328.22
2023-09-28T14:01:59.748Z,101331.16
2023-09-28T14:05:02.566Z,101338.41
2023-09-28T14:08:05.881Z,101335.47
2023-09-28T14:11:12.798Z,101334.94
2023-09-28T14:14:16.241Z,101337.19
2023-09-28T14:17:28.408Z,101331.63
2023-09-28T14:20:40.749Z,101330.91
2023-09-28T14:23:43.727Z,101330.94
2023-09-28T14:26:47.783Z,101324.63
2023-09-28T14:29:50.507Z,101324.16
2023-09-28T14:32:53.608Z,101318.28
2023-09-28T14:35:56.982Z,101317.41
2023-09-28T14:39:00.257Z,101311.13
2023-09-28T14:42:05.900Z,101307.56
2023-09-28T14:45:10.297Z,101312.56
2023-09-28T14:48:13.471Z,101309.25
2023-09-28T14:51:17.643Z,101311.28
2023-09-28T14:54:20.353Z,101311.97
2023-09-28T14:57:25.313Z,101317.84
2023-09-28T15:00:27.964Z,101315.13
2023-09-28T15:03:32.048Z,101318.06
2023-09-28T15:06:35.055Z,101327.25
2023-09-28T15:09:38.018Z,101321.22
2023-09-28T15:12:42.055Z,101331.84
2023-09-28T15:15:44.789Z,101329.69
2023-09-28T15:18:47.771Z,101329.97
2023-09-28T15:21:50.851Z,101331.22
2023-09-28T15:24:53.910Z,101334.38
2023-09-28T15:27:57.939Z,101333.56
2023-09-28T15:31:01.674Z,101331.00
2023-09-28T15:34:04.521Z,101338.66
2023-09-28T15:37:07.178Z,101342.81
2023-09-28T15:40:10.577Z,101341.75
2023-09-28T15:43:14.707Z,101337.13
2023-09-28T15:46:21.747Z,101338.09
2023-09-28T15:49:24.412Z,101344.66
2023-09-28T15:52:27.044Z,101346.66
2023-09-28T15:55:29.688Z,101352.84
2023-09-28T15:58:34.730Z,101353.63
2023-09-28T16:01:38.649Z,101355.06
2023-09-28T16:04:41.320Z,101354.75
2023-09-28T16:07:43.973Z,101349.59
2023-09-28T16:10:47.499Z,101353.22
2023-09-28T16:13:51.519Z,101359.03
2023-09-28T16:16:54.184Z,101354.97
2023-09-28T16:19:56.828Z,101357.34
2023-09-28T16:22:59.452Z,101354.03
2023-09-28T16:26:02.086Z,101361.41
2023-09-28T16:29:06.312Z,101356.50
2023-09-28T16:32:09.217Z,101355.78
2023-09-28T16:35:12.183Z,101345.50
2023-09-28T16:38:14.954Z,101351.16
2023-09-28T16:41:18.334Z,101343.44
2023-09-28T16:44:22.725Z,101347.38
2023-09-28T16:47:25.453Z,101352.66
2023-09-28T16:50:29.289Z,101351.44
2023-09-28T16:53:32.107Z,101344.31
2023-09-28T16:56:35.069Z,101349.00
2023-09-28T16:59:39.210Z,101352.88
2023-09-28T17:02:42.167Z,101356.81
2023-09-28T17:05:45.068Z,101362.97
2023-09-28T17:08:49.407Z,101358.78
2023-09-28T17:11:52.250Z,101351.31
2023-09-28T17:14:56.359Z,101352.38
2023-09-28T17:18:10.124Z,101357.25
2023-09-28T17:21:21.278Z,101349.16
2023-09-28T17:24:24.029Z,101343.03
2023-09-28T17:27:26.917Z,101335.66
2023-09-28T17:30:31.134Z,101338.75
2023-09-28T17:33:33.904Z,101339.84
2023-09-28T17:36:36.705Z,101335.19
2023-09-28T17:39:39.439Z,101344.47
2023-09-28T17:42:42.198Z,101340.63
2023-09-28T17:45:48.533Z,101343.63
2023-09-28T17:48:51.560Z,101330.53
2023-09-28T17:51:54.241Z,101330.41
2023-09-28T17:54:58.576Z,101330.03
2023-09-28T17:58:01.317Z,101336.88
2023-09-28T18:01:05.522Z,101339.16
2023-09-28T18:04:08.375Z,101348.78
2023-09-28T18:07:11.293Z,101355.75
2023-09-28T18:10:15.539Z,101356.34
2023-09-28T18:13:18.284Z,101361.75
2023-09-28T18:16:22.441Z,101362.09
2023-09-28T18:19:25.205Z,101367.91
2023-09-28T18:22:27.850Z,101378.25
2023-09-28T18:25:30.548Z,101379.25
2023-09-28T18:28:37.376Z,101379.25
2023-09-28T18:31:41.847Z,101380.34
2023-09-28T18:34:44.606Z,101379.69
2023-09-28T18:37:47.759Z,101390.16
2023-09-28T18:40:50.500Z,101387.22
2023-09-28T18:43:53.620Z,101398.88
2023-09-28T18:46:58.662Z,101392.22
2023-09-28T18:50:01.423Z,101391.34
2023-09-28T18:53:05.149Z,101391.34
2023-09-28T18:56:09.383Z,101390.59
2023-09-28T18:59:12.298Z,101391.13
2023-09-28T19:02:16.513Z,101384.28
2023-09-28T19:05:19.790Z,101382.75
2023-09-28T19:08:23.662Z,101401.94
2023-09-28T19:11:26.836Z,101407.97
2023-09-28T19:14:29.643Z,101409.03
2023-09-28T19:17:33.978Z,101407.53
2023-09-28T19:20:36.810Z,101414.09
2023-09-28T19:23:39.635Z,101416.16
2023-09-28T19:26:42.428Z,101421.22
2023-09-28T19:29:45.186Z,101410.00
2023-09-28T19:32:49.368Z,101410.88
2023-09-28T19:35:52.444Z,101412.81
2023-09-28T19:38:55.191Z,101403.44
2023-09-28T19:41:58.214Z,101408.94
2023-09-28T19:45:00.886Z,101396.75
2023-09-28T19:48:05.941Z,101398.06
2023-09-28T19:51:09.834Z,101387.91
2023-09-28T19:54:12.565Z,101374.38
2023-09-28T19:57:15.234Z,101380.63
2023-09-28T20:00:18.772Z,101379.66
2023-09-28T20:03:22.885Z,101371.75
2023-09-28T20:06:27.157Z,101376.59
2023-09-28T20:09:32.306Z,101387.94
2023-09-28T20:12:35.515Z,101387.31
2023-09-28T20:15:38.337Z,101395.25
2023-09-28T20:18:42.479Z,101400.22
2023-09-28T20:21:45.240Z,101396.00
2023-09-28T20:24:48.229Z,101390.31
2023-09-28T20:27:50.894Z,101393.91
2023-09-28T20:30:53.659Z,101391.88
2023-09-28T20:33:57.951Z,101376.28
2023-09-28T20:37:00.642Z,101382.50
2023-09-28T20:40:03.501Z,101378.59
2023-09-28T20:43:06.381Z,101381.16
2023-09-28T20:46:15.836Z,101382.50
2023-09-28T20:49:19.937Z,101384.22
2023-09-28T20:52:22.657Z,101386.03
2023-09-28T20:55:25.761Z,101390.44
2023-09-28T20:58:28.556Z,101389.88
2023-09-28T21:01:31.338Z,101397.97
2023-09-28T21:04:35.867Z,101393.25
2023-09-28T21:07:44.881Z,101387.66
2023-09-28T21:10:48.466Z,101389.59
2023-09-28T21:13:51.142Z,101371.31
2023-09-28T21:16:53.882Z,101372.81
2023-09-28T21:19:57.931Z,101376.47
2023-09-28T21:23:00.635Z,101376.72
2023-09-28T21:26:03.352Z,101385.09
2023-09-28T21:29:06.212Z,101381.41
2023-09-28T21:32:09.273Z,101390.69
2023-09-28T21:35:13.354Z,101378.44
2023-09-28T21:38:15.996Z,101377.75
2023-09-28T21:41:18.832Z,101376.03
2023-09-28T21:44:21.577Z,101380.81
2023-09-28T21:47:24.318Z,101383.28
2023-09-28T21:50:28.458Z,101378.00
2023-09-28T21:53:31.377Z,101386.81
2023-09-28T21:56:34.128Z,101391.78
2023-09-28T21:59:36.931Z,101384.94
2023-09-28T22:02:40.783Z,101379.31
2023-09-28T22:05:45.298Z,101372.59
2023-09-28T22:08:48.088Z,101377.31
2023-09-28T22:11:53.078Z,101371.75
2023-09-28T22:14:55.918Z,101374.16
2023-09-28T22:17:58.750Z,101364.69
2023-09-28T22:21:03.088Z,101373.72
2023-09-28T22:24:07.920Z,101372.59
2023-09-28T22:27:10.628Z,101369.69
2023-09-28T22:30:13.720Z,101368.78
2023-09-28T22:33:16.588Z,101362.00
2023-09-28T22:36:20.729Z,101350.31
2023-09-28T22:39:23.435Z,101353.03
2023-09-28T22:42:26.157Z,101345.16
2023-09-28T22:45:28.883Z,101345.03
2023-09-28T22:48:31.561Z,101347.25
2023-09-28T22:51:35.611Z,101341.63
2023-09-28T22:54:39.231Z,101344.56
2023-09-28T22:57:42.009Z,101343.00
2023-09-28T23:00:44.754Z,101348.25
2023-09-28T23:03:47.523Z,101345.25
2023-09-28T23:06:51.627Z,101334.81
2023-09-28T23:09:54.447Z,101332.81
2023-09-28T23:12:57.280Z,101331.69
2023-09-28T23:16:00.470Z,101335.91
2023-09-28T23:19:03.896Z,101335.34
2023-09-28T23:22:08.082Z,101338.13
2023-09-28T23:25:14.275Z,101339.22
2023-09-28T23:28:17.526Z,101347.59
2023-09-28T23:31:20.458Z,101335.97
2023-09-28T23:34:24.643Z,101326.50
2023-09-28T23:37:28.873Z,101326.00
2023-09-28T23:40:31.578Z,101329.53
2023-09-28T23:43:35.032Z,101328.88
2023-09-28T23:46:40.815Z,101325.44
2023-09-28T23:49:43.646Z,101327.91
2023-09-28T23:52:48.944Z,101333.28
2023-09-28T23:55:51.631Z,101328.13
2023-09-28T23:58:55.083Z,101324.34
